West Cameron, Pennsylvania
Current Conditions -  °F | °C
As of 10:13 PM on Sunday 23 Nov 2014 (Local Time) from KSEG Reporting Station
Overcast Overcast  
Wind Chill: 51°   Ceiling: 2600
Heat Index: 51°   Visibility: 10mi
Dew Point: 39°   Wind: 7mph
Humidity: 63%   Direction: 170°S
Pressure: 29.92"   Gusts: NA
Location:  40.7842°N, 76.5797°W
Report Text: KSEG 240313Z AUTO 17006KT 10SM BKN026 OVC033 11/04 A2992 RMK AO2 T01060039 $
Loading
Personal Weather Stations






























Interactive Weather Map New forecast layout! Learn more

10-Day Weather Forecast

Advertisements
Track Severe Weather on mobile